Georgis Nikolos — SXPX — position and weather

sailwx.info

Track history (hours):
 
Tides and Currents Weather Stations Pressure Air Temp Water Temp Dewpoint Dewpoint Depression Visibility Wind Speed Wind Dir Waves Ship Positions

Georgis Nikolos

Last reported at 2018-Jan-04 11:15 UTC. Time now 2018-Jan-22 15:38 UTC.
Position N 32°56' W 120°17'.
Warning: this ship's position is 18 days out of date.

Length 228 m; draft 8.7 m.

Type: Ship. MMSI: 240061000.

Date/timePositionNaut miles runAvg speedWind from/ knotsBaromVisibWave heightAir tempDewpointWater temp
2018-Jan-04 11:15N 32°56' W 120°17'311.6
2018-Jan-04 11:00N 32°59' W 120°19'911.5
2018-Jan-04 10:15N 33°06' W 120°25'1011.9
2018-Jan-04 09:26N 33°13' W 120°32'511.9
2018-Jan-04 09:00N 33°17' W 120°36'611.6
2018-Jan-04 08:30N 33°22' W 120°40'611.7
2018-Jan-04 08:00N 33°27' W 120°44'611.9
2018-Jan-04 07:31N 33°31' W 120°49'611.7
2018-Jan-04 07:01N 33°36' W 120°53'611.4
2018-Jan-04 06:31N 33°40' W 120°57'611.3
2018-Jan-04 06:01N 33°45' W 121°02'611.5
2018-Jan-04 05:30N 33°49' W 121°06'611.8
2018-Jan-04 05:01N 33°54' W 121°10'611.8
2018-Jan-04 04:31N 33°59' W 121°14'611.6
2018-Jan-04 04:00N 34°03' W 121°19'611.6
2018-Jan-04 03:31N 34°08' W 121°23'611.7
2018-Jan-04 03:00N 34°13' W 121°27'611.5
2018-Jan-04 02:30N 34°17' W 121°32'611.6
2018-Jan-04 02:01N 34°22' W 121°36'611.8
2018-Jan-04 01:30N 34°26' W 121°40'611.7
2018-Jan-04 01:00N 34°31' W 121°44'811.6
2018-Jan-04 00:21N 34°37' W 121°50'411.6
2018-Jan-04 00:00N 34°40' W 121°53'611.5
2018-Jan-03 23:31N 34°46' W 121°56'611.5
2018-Jan-03 23:00N 34°51' W 121°58'611.2
2018-Jan-03 22:30N 34°56' W 122°01'611.1
2018-Jan-03 22:00N 35°02' W 122°03'611.4
2018-Jan-03 21:31N 35°07' W 122°05'611.7
2018-Jan-03 21:01N 35°12' W 122°08'611.5
2018-Jan-03 20:30N 35°18' W 122°10'611.2
2018-Jan-03 20:00N 35°23' W 122°13'511.0
2018-Jan-03 19:30N 35°28' W 122°15'611.0
2018-Jan-03 19:00N 35°33' W 122°18'611.5
2018-Jan-03 18:31N 35°39' W 122°20'611.7
2018-Jan-03 18:00N 35°44' W 122°23'611.6
2018-Jan-03 17:30N 35°49' W 122°26'611.8
2018-Jan-03 17:00N 35°55' W 122°28'612.4
2018-Jan-03 16:30N 36°01' W 122°31'612.8
2018-Jan-03 16:00N 36°07' W 122°33'612.9
2018-Jan-03 15:30N 36°13' W 122°36'612.9
2018-Jan-03 15:00N 36°19' W 122°39'612.9
2018-Jan-03 14:30N 36°25' W 122°42'612.9
2018-Jan-03 14:01N 36°31' W 122°45'612.6
2018-Jan-03 13:31N 36°37' W 122°48'612.6
2018-Jan-03 13:01N 36°42' W 122°51'612.7
2018-Jan-03 12:30N 36°48' W 122°54'612.9
2018-Jan-03 12:00N 36°54' W 122°57'612.9
2018-Jan-03 11:30N 37°00' W 122°60'612.7
2018-Jan-03 11:01N 37°06' W 123°02'612.6
2018-Jan-03 10:31N 37°12' W 123°05'612.3
2018-Jan-03 10:00N 37°18' W 123°08'612.4
2018-Jan-03 09:31N 37°24' W 123°09'510.7
2018-Jan-03 09:01N 37°29' W 123°08'612.5
2018-Jan-03 08:30N 37°34' W 123°03'613.0
2018-Jan-03 08:01N 37°38' W 122°56'612.8
2018-Jan-03 07:31N 37°42' W 122°50'613.0
2018-Jan-03 07:01N 37°45' W 122°43'510.2
2018-Jan-03 06:31N 37°46' W 122°36'510.6
2018-Jan-03 06:01N 37°49' W 122°30'5 9.6
2018-Jan-03 05:31N 37°51' W 122°25'5 9.1
2018-Jan-03 05:01N 37°55' W 122°25'1 1.0
2018-Jan-03 04:28N 37°55' W 122°25'0 0.0
2018-Jan-03 03:58N 37°55' W 122°25'0 0.0
2018-Jan-03 03:28N 37°55' W 122°25'0 0.0
2018-Jan-03 02:58N 37°55' W 122°25'0 0.0
2018-Jan-03 02:28N 37°55' W 122°25'0 0.0
2018-Jan-03 01:58N 37°55' W 122°25'0 0.0
2018-Jan-03 01:28N 37°55' W 122°25'0 0.0
2018-Jan-03 00:58N 37°55' W 122°25'0 0.0
2018-Jan-03 00:28N 37°55' W 122°25'0 0.0
2018-Jan-02 23:55N 37°55' W 122°25'0 0.0
2018-Jan-02 23:28N 37°55' W 122°25'0 0.0
2018-Jan-02 22:58N 37°55' W 122°25'0 0.0
2018-Jan-02 22:22N 37°55' W 122°25'0 0.0
2018-Jan-02 21:55N 37°55' W 122°25'0 0.0
2018-Jan-02 21:25N 37°55' W 122°25'0 0.0
2018-Jan-02 20:58N 37°55' W 122°25'0 0.0
2018-Jan-02 20:28N 37°55' W 122°25'0 0.0
2018-Jan-02 19:58N 37°55' W 122°25'0 0.0
2018-Jan-02 19:28N 37°55' W 122°25'0 0.0
2018-Jan-02 18:58N 37°55' W 122°25'0 0.0
2018-Jan-02 18:28N 37°55' W 122°25'0 0.0
2018-Jan-02 17:58N 37°55' W 122°25'0 0.0
2018-Jan-02 17:28N 37°55' W 122°25'0 0.0
2018-Jan-02 16:58N 37°55' W 122°25'0 0.0
2018-Jan-02 16:28N 37°55' W 122°25'0 0.0
2018-Jan-02 15:55N 37°55' W 122°25'0 0.0
2018-Jan-02 15:28N 37°55' W 122°25'0 0.0
2018-Jan-02 14:58N 37°55' W 122°25'0 0.0
2018-Jan-02 14:28N 37°55' W 122°25'0 0.0
2018-Jan-02 13:55N 37°55' W 122°25'0 0.0
2018-Jan-02 13:28N 37°55' W 122°25'0 0.0
2018-Jan-02 12:58N 37°55' W 122°25'0 0.0
2018-Jan-02 12:25N 37°55' W 122°25'0 0.0
2018-Jan-02 11:58N 37°55' W 122°25'0 0.0
2018-Jan-02 11:28N 37°55' W 122°25'0 0.0
2018-Jan-02 10:58N 37°55' W 122°25'0 0.0
2018-Jan-02 10:28N 37°55' W 122°25'0 0.0
2018-Jan-02 09:58N 37°55' W 122°25'0 0.0
2018-Jan-02 09:28N 37°55' W 122°25'0 0.0
2018-Jan-02 08:28N 37°55' W 122°25'0 0.0
2018-Jan-02 07:58N 37°55' W 122°25'0 0.0
2018-Jan-02 07:28N 37°55' W 122°25'0 0.0
2018-Jan-02 06:52N 37°55' W 122°25'0 0.0
2018-Jan-02 06:28N 37°55' W 122°25'0 0.0
2018-Jan-02 05:58N 37°55' W 122°25'0 0.0
2018-Jan-02 05:28N 37°55' W 122°25'0 0.0
2018-Jan-02 04:28N 37°55' W 122°25'0 0.0
2018-Jan-02 03:58N 37°55' W 122°25'0 0.0
2018-Jan-02 03:28N 37°55' W 122°25'0 0.0
2018-Jan-02 02:58N 37°55' W 122°25'0 0.0
2018-Jan-02 02:28N 37°55' W 122°25'0 0.0
2018-Jan-02 01:58N 37°55' W 122°25'0 0.0
2018-Jan-02 01:28N 37°55' W 122°25'0 0.0
2018-Jan-02 00:58N 37°55' W 122°25'0 0.0
2018-Jan-02 00:28N 37°55' W 122°25'0 0.0
2018-Jan-01 23:58N 37°55' W 122°25'0 0.0
2018-Jan-01 23:28N 37°55' W 122°25'0 0.0
2018-Jan-01 22:58N 37°55' W 122°25'0 0.0
2018-Jan-01 22:28N 37°55' W 122°25'0 0.0
2018-Jan-01 21:58N 37°55' W 122°25'0 0.0
2018-Jan-01 21:28N 37°55' W 122°25'0 0.0
2018-Jan-01 20:58N 37°55' W 122°25'0 0.0
2018-Jan-01 20:25N 37°55' W 122°25'0 0.0
2018-Jan-01 19:58N 37°55' W 122°25'0 0.0
2018-Jan-01 19:28N 37°55' W 122°25'0 0.0
2018-Jan-01 18:58N 37°55' W 122°25'0 0.0
2018-Jan-01 18:28N 37°55' W 122°25'0 0.0
2018-Jan-01 17:58N 37°55' W 122°25'0 0.0
2018-Jan-01 17:28N 37°55' W 122°25'0 0.0
2018-Jan-01 14:46N 37°55' W 122°25'0 0.0
2018-Jan-01 14:28N 37°55' W 122°25'0 0.0
2018-Jan-01 13:46N 37°55' W 122°25'0 0.0
2018-Jan-01 13:22N 37°55' W 122°25'0 0.0
2018-Jan-01 12:52N 37°55' W 122°25'0 0.0
2018-Jan-01 11:43N 37°55' W 122°25'0 0.0
2018-Jan-01 11:25N 37°55' W 122°25'0 0.0
2018-Jan-01 10:34N 37°55' W 122°25'0 0.0
2018-Jan-01 10:28N 37°55' W 122°25'0 0.0
2018-Jan-01 09:58N 37°55' W 122°25'0 0.0
2018-Jan-01 09:16N 37°55' W 122°25'0 0.0
2018-Jan-01 08:16N 37°55' W 122°25'0 0.0
2018-Jan-01 07:58N 37°55' W 122°25'0 0.0
2018-Jan-01 07:04N 37°55' W 122°25'0 0.0
2018-Jan-01 06:58N 37°55' W 122°25'0 0.0
2018-Jan-01 05:58N 37°55' W 122°25'0 0.0
2018-Jan-01 05:22N 37°55' W 122°25'0 0.0
2018-Jan-01 04:58N 37°55' W 122°25'0 0.0
2018-Jan-01 03:58N 37°55' W 122°25'0 0.0
2018-Jan-01 03:22N 37°55' W 122°25'0 0.0
2018-Jan-01 02:55N 37°55' W 122°25'0 0.0
2018-Jan-01 02:28N 37°55' W 122°25'0 0.0
2018-Jan-01 01:16N 37°55' W 122°25'0 0.0
2018-Jan-01 00:28N 37°55' W 122°25'0 0.0
2017-Dec-31 20:49N 37°55' W 122°25'0 0.0
2017-Dec-31 20:25N 37°55' W 122°25'0 0.0
2017-Dec-31 19:55N 37°55' W 122°25'0 0.0
2017-Dec-31 19:19N 37°55' W 122°25'0 0.0
2017-Dec-31 18:55N 37°55' W 122°25'0 0.0
2017-Dec-31 18:25N 37°55' W 122°25'0 0.0
2017-Dec-31 17:58N 37°55' W 122°25'0 0.0
2017-Dec-31 17:28N 37°55' W 122°25'0 0.0
2017-Dec-31 16:58N 37°55' W 122°25'0 0.0
2017-Dec-31 16:25N 37°55' W 122°25'0 0.0
2017-Dec-31 15:58N 37°55' W 122°25'0 0.0
2017-Dec-31 15:30N 37°55' W 122°25'1 1.4
2017-Dec-31 15:00N 37°55' W 122°25'3 6.7
2017-Dec-31 14:30N 37°52' W 122°24'2 3.5
2017-Dec-31 14:00N 37°50' W 122°24'3 7.0
2017-Dec-31 13:31N 37°47' W 122°22'2 3.2
2017-Dec-31 13:00N 37°45' W 122°21'0 0.4
2017-Dec-31 12:30N 37°46' W 122°21'0 0.2
2017-Dec-31 11:59N 37°46' W 122°21'0 0.0
2017-Dec-31 11:30N 37°46' W 122°21'0 0.0
2017-Dec-31 10:59N 37°46' W 122°21'0 0.0
2017-Dec-31 10:30N 37°46' W 122°21'0 0.0
2017-Dec-31 09:59N 37°46' W 122°21'0 0.0
2017-Dec-31 09:29N 37°46' W 122°21'0 0.0
2017-Dec-31 08:59N 37°46' W 122°21'0 0.1
2017-Dec-31 08:29N 37°46' W 122°21'0 0.1
2017-Dec-31 07:59N 37°46' W 122°21'0 0.3
2017-Dec-31 07:30N 37°46' W 122°21'0 0.2
2017-Dec-31 07:00N 37°45' W 122°21'0 0.1
2017-Dec-31 06:29N 37°45' W 122°21'0 0.0
2017-Dec-31 06:00N 37°45' W 122°21'0 0.0
2017-Dec-31 05:29N 37°45' W 122°21'0 0.0
2017-Dec-31 04:59N 37°45' W 122°21'0 0.0
2017-Dec-31 04:26N 37°45' W 122°21'0 0.0
2017-Dec-31 04:00N 37°45' W 122°21'0 0.0
2017-Dec-31 03:30N 37°45' W 122°21'0 0.0
2017-Dec-31 03:00N 37°45' W 122°21'0 0.0
2017-Dec-31 02:30N 37°45' W 122°21'0 0.0
2017-Dec-31 01:59N 37°45' W 122°21'0 0.1
2017-Dec-31 01:29N 37°45' W 122°21'0 0.4
2017-Dec-31 01:00N 37°46' W 122°21'0 0.1
2017-Dec-31 00:29N 37°46' W 122°21'0 0.0
2017-Dec-31 00:00N 37°46' W 122°21'0 0.0
2017-Dec-30 23:29N 37°46' W 122°21'0 0.0
2017-Dec-30 22:59N 37°46' W 122°21'0 0.0
2017-Dec-30 22:29N 37°46' W 122°21'0 0.1
2017-Dec-30 21:59N 37°46' W 122°21'0 0.0
2017-Dec-30 21:29N 37°46' W 122°21'0 0.0
2017-Dec-30 20:59N 37°46' W 122°21'0 0.1
2017-Dec-30 20:29N 37°46' W 122°21'0 0.0
2017-Dec-30 19:59N 37°46' W 122°21'0 0.1
2017-Dec-30 19:29N 37°46' W 122°21'0 0.1
2017-Dec-30 19:00N 37°46' W 122°21'0 0.0
2017-Dec-30 18:29N 37°46' W 122°21'0 0.1
2017-Dec-30 17:59N 37°46' W 122°21'0 0.4
2017-Dec-30 17:30N 37°45' W 122°21'0 0.2
2017-Dec-30 16:59N 37°45' W 122°21'0 0.0
2017-Dec-30 16:30N 37°45' W 122°21'0 0.1
2017-Dec-30 15:59N 37°45' W 122°21'0 0.0
2017-Dec-30 15:30N 37°45' W 122°21'0 0.0
2017-Dec-30 14:59N 37°45' W 122°21'0 0.0
2017-Dec-30 14:29N 37°45' W 122°21'0 0.1
2017-Dec-30 13:59N 37°45' W 122°21'0 0.0
2017-Dec-30 13:30N 37°45' W 122°21'0 0.0
2017-Dec-30 13:00N 37°45' W 122°21'0 0.0
2017-Dec-30 12:30N 37°45' W 122°21'0 0.0
2017-Dec-30 12:00N 37°45' W 122°21'0 0.1
2017-Dec-30 11:29N 37°45' W 122°21'0 0.4
2017-Dec-30 10:59N 37°46' W 122°21'0 0.1
2017-Dec-30 10:29N 37°46' W 122°21'0 0.0
2017-Dec-30 10:00N 37°46' W 122°21'0 0.0
2017-Dec-30 09:30N 37°46' W 122°21'0 0.0
2017-Dec-30 09:00N 37°46' W 122°21'0 0.1
2017-Dec-30 08:29N 37°46' W 122°21'0 0.0
2017-Dec-30 07:59N 37°46' W 122°21'0 0.1
2017-Dec-30 07:29N 37°46' W 122°21'0 0.1
2017-Dec-30 07:00N 37°46' W 122°21'0 0.3
2017-Dec-30 06:30N 37°46' W 122°21'0 0.2
2017-Dec-30 05:59N 37°45' W 122°21'0 0.1
2017-Dec-30 05:29N 37°45' W 122°21'0 0.0
2017-Dec-30 05:00N 37°45' W 122°21'0 0.0
2017-Dec-30 04:29N 37°45' W 122°21'0 0.0
2017-Dec-30 03:59N 37°45' W 122°21'0 0.0
2017-Dec-30 03:30N 37°45' W 122°21'0 0.0
2017-Dec-30 02:59N 37°45' W 122°21'0 0.0
2017-Dec-30 02:29N 37°45' W 122°21'0 0.0
2017-Dec-30 01:59N 37°45' W 122°21'0 0.0
2017-Dec-30 01:30N 37°45' W 122°21'0 0.0
2017-Dec-30 00:59N 37°45' W 122°21'0 0.1
2017-Dec-30 00:29N 37°45' W 122°21'0 0.4
2017-Dec-29 23:59N 37°46' W 122°21'0 0.1
2017-Dec-29 23:29N 37°46' W 122°21'0 0.0
2017-Dec-29 22:59N 37°46' W 122°21'0 0.0
2017-Dec-29 22:29N 37°46' W 122°21'0 0.0
2017-Dec-29 21:56N 37°46' W 122°21'0 0.0
2017-Dec-29 21:29N 37°46' W 122°21'0 0.0
2017-Dec-29 20:59N 37°46' W 122°21'0 0.1
2017-Dec-29 20:29N 37°46' W 122°21'0 0.1
2017-Dec-29 19:59N 37°46' W 122°21'0 0.0
2017-Dec-29 19:29N 37°46' W 122°21'0 0.0
2017-Dec-29 18:59N 37°46' W 122°21'0 0.1
2017-Dec-29 18:29N 37°46' W 122°21'0 0.0
2017-Dec-29 17:59N 37°46' W 122°21'0 0.0
2017-Dec-29 17:29N 37°46' W 122°21'0 0.3
2017-Dec-29 16:59N 37°46' W 122°21'0 0.3
2017-Dec-29 16:29N 37°45' W 122°21'0 0.1
2017-Dec-29 15:59N 37°45' W 122°21'0 0.0
2017-Dec-29 15:29N 37°45' W 122°21'0 0.0
2017-Dec-29 14:59N 37°45' W 122°21'0 0.0
2017-Dec-29 14:29N 37°45' W 122°21'0 0.1
2017-Dec-29 13:59N 37°45' W 122°21'0 0.1
2017-Dec-29 13:29N 37°45' W 122°21'0 0.0
2017-Dec-29 12:59N 37°45' W 122°21'0 0.0
2017-Dec-29 12:29N 37°45' W 122°21'0 0.0
2017-Dec-29 11:59N 37°45' W 122°21'0 0.0
2017-Dec-29 11:29N 37°45' W 122°21'0 0.0
2017-Dec-29 10:59N 37°45' W 122°21'0 0.2
2017-Dec-29 10:29N 37°46' W 122°21'0 0.4
2017-Dec-29 09:59N 37°46' W 122°21'0 0.0
2017-Dec-29 09:29N 37°46' W 122°21'0 0.1
2017-Dec-29 08:59N 37°46' W 122°21'0 0.0
2017-Dec-29 08:29N 37°46' W 122°21'0 0.0
2017-Dec-29 07:59N 37°46' W 122°21'0 0.1
2017-Dec-29 07:29N 37°46' W 122°21'0 0.0
2017-Dec-29 06:59N 37°46' W 122°21'0 0.0
2017-Dec-29 06:29N 37°46' W 122°21'0 0.4
2017-Dec-29 05:59N 37°46' W 122°21'0 0.4
2017-Dec-29 05:29N 37°45' W 122°21'0 0.0
2017-Dec-29 04:59N 37°45' W 122°21'0 0.0
2017-Dec-29 04:29N 37°45' W 122°21'0 0.0
2017-Dec-29 03:59N 37°45' W 122°21'0 0.1
2017-Dec-29 03:29N 37°45' W 122°21'0 0.0
2017-Dec-29 02:59N 37°45' W 122°21'0 0.1
2017-Dec-29 02:29N 37°45' W 122°21'0 0.0
2017-Dec-29 01:59N 37°45' W 122°21'0 0.0
2017-Dec-29 01:29N 37°45' W 122°21'0 0.0
2017-Dec-29 00:59N 37°45' W 122°21'0 0.1
2017-Dec-29 00:26N 37°45' W 122°21'0 0.0
2017-Dec-28 23:59N 37°45' W 122°21'0 0.2
2017-Dec-28 23:26N 37°45' W 122°21'0 0.3
2017-Dec-28 22:59N 37°46' W 122°21'0 0.1
2017-Dec-28 22:29N 37°46' W 122°21'0 0.1
2017-Dec-28 21:59N 37°46' W 122°21'0 0.0
2017-Dec-28 21:29N 37°46' W 122°21'0 0.0
2017-Dec-28 20:59N 37°46' W 122°21'0 0.0
2017-Dec-28 20:29N 37°46' W 122°21'0 0.0
2017-Dec-28 19:59N 37°46' W 122°21'0 0.0
2017-Dec-28 19:29N 37°46' W 122°21'0 0.1
2017-Dec-28 18:59N 37°46' W 122°21'0 0.0
2017-Dec-28 18:29N 37°46' W 122°21'0 0.1
2017-Dec-28 17:59N 37°46' W 122°21'0 0.2
2017-Dec-28 17:29N 37°46' W 122°21'0 0.1
2017-Dec-28 16:59N 37°46' W 122°21'0 0.2
2017-Dec-28 16:29N 37°46' W 122°21'0 0.3
2017-Dec-28 15:59N 37°45' W 122°21'0 0.1
2017-Dec-28 15:29N 37°45' W 122°21'0 0.1
2017-Dec-28 14:59N 37°45' W 122°21'0 0.0
2017-Dec-28 14:29N 37°45' W 122°21'0 0.0
2017-Dec-28 13:59N 37°45' W 122°21'0 0.0
2017-Dec-28 13:29N 37°45' W 122°21'0 0.0
2017-Dec-28 12:59N 37°45' W 122°21'0 0.0
2017-Dec-28 12:29N 37°45' W 122°21'0 0.0
2017-Dec-28 11:59N 37°45' W 122°21'0 0.0
2017-Dec-28 11:29N 37°45' W 122°21'0 0.0
2017-Dec-28 10:59N 37°45' W 122°21'0 0.0
2017-Dec-28 10:29N 37°45' W 122°21'0 0.0
2017-Dec-28 09:59N 37°45' W 122°21'0 0.3
2017-Dec-28 09:29N 37°45' W 122°21'0 0.3
2017-Dec-28 08:59N 37°46' W 122°21'0 0.1
2017-Dec-28 08:29N 37°46' W 122°21'0 0.0
2017-Dec-28 07:59N 37°46' W 122°21'0 0.1
2017-Dec-28 07:29N 37°46' W 122°21'0 0.1
2017-Dec-28 06:59N 37°46' W 122°21'0 0.0
2017-Dec-28 06:29N 37°46' W 122°21'0 0.0
2017-Dec-28 05:59N 37°46' W 122°21'0 0.0
2017-Dec-28 05:29N 37°46' W 122°21'0 0.0
2017-Dec-28 04:59N 37°46' W 122°21'0 0.2
2017-Dec-28 04:29N 37°46' W 122°21'0 0.3
2017-Dec-28 03:59N 37°45' W 122°21'0 0.1
2017-Dec-28 03:29N 37°45' W 122°21'0 0.0
2017-Dec-28 02:59N 37°45' W 122°21'0 0.0
2017-Dec-28 02:29N 37°45' W 122°21'0 0.1
2017-Dec-28 01:59N 37°45' W 122°21'0 0.0
2017-Dec-28 01:29N 37°45' W 122°21'1 1.8
2017-Dec-28 01:00N 37°46' W 122°22'4 8.2
2017-Dec-28 00:30N 37°49' W 122°25'611.8
2017-Dec-28 00:00N 37°47' W 122°33'611.9
2017-Dec-27 23:30N 37°45' W 122°40'610.9
2017-Dec-27 23:00N 37°42' W 122°45'612.2
2017-Dec-27 22:30N 37°38' W 122°51'612.0
2017-Dec-27 22:00N 37°35' W 122°58'612.1
2017-Dec-27 21:30N 37°31' W 123°04'2511.6
2017-Dec-27 19:17N 37°06' W 123°03'1 4.1
2017-Dec-27 18:58N 37°05' W 123°02'510.7
2017-Dec-27 18:30N 37°00' W 122°60'711.6
2017-Dec-27 17:52N 36°53' W 122°56'411.8
2017-Dec-27 17:30N 36°49' W 122°54'611.9
2017-Dec-27 17:00N 36°44' W 122°52'612.2
2017-Dec-27 16:31N 36°38' W 122°49'612.0
2017-Dec-27 16:00N 36°33' W 122°47'612.0
2017-Dec-27 15:30N 36°27' W 122°44'611.9
2017-Dec-27 15:01N 36°22' W 122°41'611.7
2017-Dec-27 14:31N 36°16' W 122°38'611.8
2017-Dec-27 14:00N 36°11' W 122°36'611.5
2017-Dec-27 13:30N 36°05' W 122°33'611.4
2017-Dec-27 13:00N 35°60' W 122°31'611.2
2017-Dec-27 12:31N 35°55' W 122°28'611.4
2017-Dec-27 12:00N 35°49' W 122°26'611.3
2017-Dec-27 11:30N 35°44' W 122°23'611.2
2017-Dec-27 11:01N 35°39' W 122°21'611.2
2017-Dec-27 10:30N 35°34' W 122°18'611.3
2017-Dec-27 10:00N 35°28' W 122°16'611.1
2017-Dec-27 09:30N 35°23' W 122°13'611.3
2017-Dec-27 09:00N 35°18' W 122°11'611.5
2017-Dec-27 08:31N 35°13' W 122°08'611.5
2017-Dec-27 08:01N 35°07' W 122°06'611.6
2017-Dec-27 07:31N 35°02' W 122°03'611.5
2017-Dec-27 07:00N 34°56' W 122°01'611.5
2017-Dec-27 06:30N 34°51' W 121°58'611.4
2017-Dec-27 06:01N 34°46' W 121°55'611.1
2017-Dec-27 05:30N 34°41' W 121°53'611.0
2017-Dec-27 05:00N 34°36' W 121°49'611.4
2017-Dec-27 04:30N 34°31' W 121°45'611.4
2017-Dec-27 03:59N 34°27' W 121°41'611.6
2017-Dec-27 03:29N 34°22' W 121°36'611.5
2017-Dec-27 02:59N 34°18' W 121°32'611.8
2017-Dec-27 02:30N 34°13' W 121°28'611.3
2017-Dec-27 02:00N 34°09' W 121°24'611.6
2017-Dec-27 01:30N 34°04' W 121°19'611.3
2017-Dec-27 01:00N 33°60' W 121°15'611.2
2017-Dec-27 00:31N 33°55' W 121°11'611.2
2017-Dec-27 00:00N 33°51' W 121°07'611.1
2017-Dec-26 23:30N 33°46' W 121°03'611.4
2017-Dec-26 23:01N 33°42' W 120°59'611.8
2017-Dec-26 22:29N 33°37' W 120°54'611.7
2017-Dec-26 22:00N 33°33' W 120°50'611.6
2017-Dec-26 21:31N 33°28' W 120°46'611.5
2017-Dec-26 21:00N 33°23' W 120°42'611.5
2017-Dec-26 20:30N 33°19' W 120°38'611.6
2017-Dec-26 20:00N 33°14' W 120°33'811.7
2017-Dec-26 19:19N 33°08' W 120°27'411.4
2017-Dec-26 19:00N 33°05' W 120°25'611.5
2017-Dec-26 18:31N 33°01' W 120°21'611.7
2017-Dec-26 18:00N 32°56' W 120°16'611.7
2017-Dec-26 17:30N 32°51' W 120°12'1211.6
2017-Dec-26 16:29N 32°42' W 120°03'1511.8
2017-Dec-26 15:11N 32°30' W 119°52'1511.8
2017-Dec-26 13:54N 32°18' W 119°41'512.2
2017-Dec-26 13:30N 32°14' W 119°38'612.1
2017-Dec-26 13:00N 32°09' W 119°33'612.0
2017-Dec-26 12:30N 32°04' W 119°29'611.8
2017-Dec-26 12:00N 31°60' W 119°25'611.8
2017-Dec-26 11:29N 31°55' W 119°20'611.7
2017-Dec-26 10:57N 31°50' W 119°16'511.7
2017-Dec-26 10:30N 31°46' W 119°12'611.8
2017-Dec-26 10:00N 31°41' W 119°08'611.8
2017-Dec-26 09:30N 31°37' W 119°03'612.1
2017-Dec-26 09:00N 31°32' W 118°60'612.0
2017-Dec-26 08:30N 31°27' W 118°55'611.8
2017-Dec-26 08:00N 31°22' W 118°51'611.7
2017-Dec-26 07:30N 31°18' W 118°47'611.6
2017-Dec-26 07:00N 31°13' W 118°43'611.8
2017-Dec-26 06:30N 31°08' W 118°38'6011.7
2017-Dec-26 01:22N 30°21' W 117°56'411.5
2017-Dec-26 01:00N 30°18' W 117°53'711.5
2017-Dec-26 00:24N 30°12' W 117°48'511.4
2017-Dec-26 00:00N 30°08' W 117°45'611.4
2017-Dec-25 23:30N 30°04' W 117°41'611.4
2017-Dec-25 22:58N 29°59' W 117°37'611.7
2017-Dec-25 22:29N 29°55' W 117°32'611.5
2017-Dec-25 22:00N 29°50' W 117°28'611.6
2017-Dec-25 21:28N 29°45' W 117°24'511.6
2017-Dec-25 21:00N 29°41' W 117°21'611.6
2017-Dec-25 20:30N 29°36' W 117°17'611.7
2017-Dec-25 20:01N 29°32' W 117°12'611.9
2017-Dec-25 19:30N 29°27' W 117°08'811.9
2017-Dec-25 18:48N 29°21' W 117°02'412.2
2017-Dec-25 18:30N 29°18' W 116°60'812.3
2017-Dec-25 17:53N 29°12' W 116°54'712.4
2017-Dec-25 17:20N 29°06' W 116°50'3112.6
2017-Dec-25 14:55N 28°42' W 116°28'512.6
2017-Dec-25 14:31N 28°38' W 116°25'712.5
2017-Dec-25 13:57N 28°32' W 116°20'612.6
2017-Dec-25 13:29N 28°28' W 116°16'612.5
2017-Dec-25 12:59N 28°23' W 116°12'612.4
2017-Dec-25 12:30N 28°18' W 116°08'612.2
2017-Dec-25 12:00N 28°13' W 116°04'612.2
2017-Dec-25 11:30N 28°08' W 115°59'  
Track history (hours):
 
Tides and Currents Weather Stations Pressure Air Temp Water Temp Dewpoint Dewpoint Depression Visibility Wind Speed Wind Dir Waves Ship Positions

Georgis Nikolos

Last reported at 2018-Jan-04 11:15 UTC. Time now 2018-Jan-22 15:38 UTC.
Position N 32°56' W 120°17'.
Warning: this ship's position is 18 days out of date.

Length 228 m; draft 8.7 m.

Type: Ship. MMSI: 240061000.

Date/timePositionNaut miles runAvg speedWind from/ knotsBaromVisibWave heightAir tempDewpointWater temp
2018-Jan-04 11:15N 32°56' W 120°17'311.6
2018-Jan-04 11:00N 32°59' W 120°19'911.5
2018-Jan-04 10:15N 33°06' W 120°25'1011.9
2018-Jan-04 09:26N 33°13' W 120°32'511.9
2018-Jan-04 09:00N 33°17' W 120°36'611.6
2018-Jan-04 08:30N 33°22' W 120°40'611.7
2018-Jan-04 08:00N 33°27' W 120°44'611.9
2018-Jan-04 07:31N 33°31' W 120°49'611.7
2018-Jan-04 07:01N 33°36' W 120°53'611.4
2018-Jan-04 06:31N 33°40' W 120°57'611.3
2018-Jan-04 06:01N 33°45' W 121°02'611.5
2018-Jan-04 05:30N 33°49' W 121°06'611.8
2018-Jan-04 05:01N 33°54' W 121°10'611.8
2018-Jan-04 04:31N 33°59' W 121°14'611.6
2018-Jan-04 04:00N 34°03' W 121°19'611.6
2018-Jan-04 03:31N 34°08' W 121°23'611.7
2018-Jan-04 03:00N 34°13' W 121°27'611.5
2018-Jan-04 02:30N 34°17' W 121°32'611.6
2018-Jan-04 02:01N 34°22' W 121°36'611.8
2018-Jan-04 01:30N 34°26' W 121°40'611.7
2018-Jan-04 01:00N 34°31' W 121°44'811.6
2018-Jan-04 00:21N 34°37' W 121°50'411.6
2018-Jan-04 00:00N 34°40' W 121°53'611.5
2018-Jan-03 23:31N 34°46' W 121°56'611.5
2018-Jan-03 23:00N 34°51' W 121°58'611.2
2018-Jan-03 22:30N 34°56' W 122°01'611.1
2018-Jan-03 22:00N 35°02' W 122°03'611.4
2018-Jan-03 21:31N 35°07' W 122°05'611.7
2018-Jan-03 21:01N 35°12' W 122°08'611.5
2018-Jan-03 20:30N 35°18' W 122°10'611.2
2018-Jan-03 20:00N 35°23' W 122°13'511.0
2018-Jan-03 19:30N 35°28' W 122°15'611.0
2018-Jan-03 19:00N 35°33' W 122°18'611.5
2018-Jan-03 18:31N 35°39' W 122°20'611.7
2018-Jan-03 18:00N 35°44' W 122°23'611.6
2018-Jan-03 17:30N 35°49' W 122°26'611.8
2018-Jan-03 17:00N 35°55' W 122°28'612.4
2018-Jan-03 16:30N 36°01' W 122°31'612.8
2018-Jan-03 16:00N 36°07' W 122°33'612.9
2018-Jan-03 15:30N 36°13' W 122°36'612.9
2018-Jan-03 15:00N 36°19' W 122°39'612.9
2018-Jan-03 14:30N 36°25' W 122°42'612.9
2018-Jan-03 14:01N 36°31' W 122°45'612.6
2018-Jan-03 13:31N 36°37' W 122°48'612.6
2018-Jan-03 13:01N 36°42' W 122°51'612.7
2018-Jan-03 12:30N 36°48' W 122°54'612.9
2018-Jan-03 12:00N 36°54' W 122°57'612.9
2018-Jan-03 11:30N 37°00' W 122°60'612.7
2018-Jan-03 11:01N 37°06' W 123°02'612.6
2018-Jan-03 10:31N 37°12' W 123°05'612.3
2018-Jan-03 10:00N 37°18' W 123°08'612.4
2018-Jan-03 09:31N 37°24' W 123°09'510.7
2018-Jan-03 09:01N 37°29' W 123°08'612.5
2018-Jan-03 08:30N 37°34' W 123°03'613.0
2018-Jan-03 08:01N 37°38' W 122°56'612.8
2018-Jan-03 07:31N 37°42' W 122°50'613.0
2018-Jan-03 07:01N 37°45' W 122°43'510.2
2018-Jan-03 06:31N 37°46' W 122°36'510.6
2018-Jan-03 06:01N 37°49' W 122°30'5 9.6
2018-Jan-03 05:31N 37°51' W 122°25'5 9.1
2018-Jan-03 05:01N 37°55' W 122°25'1 1.0
2018-Jan-03 04:28N 37°55' W 122°25'0 0.0
2018-Jan-03 03:58N 37°55' W 122°25'0 0.0
2018-Jan-03 03:28N 37°55' W 122°25'0 0.0
2018-Jan-03 02:58N 37°55' W 122°25'0 0.0
2018-Jan-03 02:28N 37°55' W 122°25'0 0.0
2018-Jan-03 01:58N 37°55' W 122°25'0 0.0
2018-Jan-03 01:28N 37°55' W 122°25'0 0.0
2018-Jan-03 00:58N 37°55' W 122°25'0 0.0
2018-Jan-03 00:28N 37°55' W 122°25'0 0.0
2018-Jan-02 23:55N 37°55' W 122°25'0 0.0
2018-Jan-02 23:28N 37°55' W 122°25'0 0.0
2018-Jan-02 22:58N 37°55' W 122°25'0 0.0
2018-Jan-02 22:22N 37°55' W 122°25'0 0.0
2018-Jan-02 21:55N 37°55' W 122°25'0 0.0
2018-Jan-02 21:25N 37°55' W 122°25'0 0.0
2018-Jan-02 20:58N 37°55' W 122°25'0 0.0
2018-Jan-02 20:28N 37°55' W 122°25'0 0.0
2018-Jan-02 19:58N 37°55' W 122°25'0 0.0
2018-Jan-02 19:28N 37°55' W 122°25'0 0.0
2018-Jan-02 18:58N 37°55' W 122°25'0 0.0
2018-Jan-02 18:28N 37°55' W 122°25'0 0.0
2018-Jan-02 17:58N 37°55' W 122°25'0 0.0
2018-Jan-02 17:28N 37°55' W 122°25'0 0.0
2018-Jan-02 16:58N 37°55' W 122°25'0 0.0
2018-Jan-02 16:28N 37°55' W 122°25'0 0.0
2018-Jan-02 15:55N 37°55' W 122°25'0 0.0
2018-Jan-02 15:28N 37°55' W 122°25'0 0.0
2018-Jan-02 14:58N 37°55' W 122°25'0 0.0
2018-Jan-02 14:28N 37°55' W 122°25'0 0.0
2018-Jan-02 13:55N 37°55' W 122°25'0 0.0
2018-Jan-02 13:28N 37°55' W 122°25'0 0.0
2018-Jan-02 12:58N 37°55' W 122°25'0 0.0
2018-Jan-02 12:25N 37°55' W 122°25'0 0.0
2018-Jan-02 11:58N 37°55' W 122°25'0 0.0
2018-Jan-02 11:28N 37°55' W 122°25'0 0.0
2018-Jan-02 10:58N 37°55' W 122°25'0 0.0
2018-Jan-02 10:28N 37°55' W 122°25'0 0.0
2018-Jan-02 09:58N 37°55' W 122°25'0 0.0
2018-Jan-02 09:28N 37°55' W 122°25'0 0.0
2018-Jan-02 08:28N 37°55' W 122°25'0 0.0
2018-Jan-02 07:58N 37°55' W 122°25'0 0.0
2018-Jan-02 07:28N 37°55' W 122°25'0 0.0
2018-Jan-02 06:52N 37°55' W 122°25'0 0.0
2018-Jan-02 06:28N 37°55' W 122°25'0 0.0
2018-Jan-02 05:58N 37°55' W 122°25'0 0.0
2018-Jan-02 05:28N 37°55' W 122°25'0 0.0
2018-Jan-02 04:28N 37°55' W 122°25'0 0.0
2018-Jan-02 03:58N 37°55' W 122°25'0 0.0
2018-Jan-02 03:28N 37°55' W 122°25'0 0.0
2018-Jan-02 02:58N 37°55' W 122°25'0 0.0
2018-Jan-02 02:28N 37°55' W 122°25'0 0.0
2018-Jan-02 01:58N 37°55' W 122°25'0 0.0
2018-Jan-02 01:28N 37°55' W 122°25'0 0.0
2018-Jan-02 00:58N 37°55' W 122°25'0 0.0
2018-Jan-02 00:28N 37°55' W 122°25'0 0.0
2018-Jan-01 23:58N 37°55' W 122°25'0 0.0
2018-Jan-01 23:28N 37°55' W 122°25'0 0.0
2018-Jan-01 22:58N 37°55' W 122°25'0 0.0
2018-Jan-01 22:28N 37°55' W 122°25'0 0.0
2018-Jan-01 21:58N 37°55' W 122°25'0 0.0
2018-Jan-01 21:28N 37°55' W 122°25'0 0.0
2018-Jan-01 20:58N 37°55' W 122°25'0 0.0
2018-Jan-01 20:25N 37°55' W 122°25'0 0.0
2018-Jan-01 19:58N 37°55' W 122°25'0 0.0
2018-Jan-01 19:28N 37°55' W 122°25'0 0.0
2018-Jan-01 18:58N 37°55' W 122°25'0 0.0
2018-Jan-01 18:28N 37°55' W 122°25'0 0.0
2018-Jan-01 17:58N 37°55' W 122°25'0 0.0
2018-Jan-01 17:28N 37°55' W 122°25'0 0.0
2018-Jan-01 14:46N 37°55' W 122°25'0 0.0
2018-Jan-01 14:28N 37°55' W 122°25'0 0.0
2018-Jan-01 13:46N 37°55' W 122°25'0 0.0
2018-Jan-01 13:22N 37°55' W 122°25'0 0.0
2018-Jan-01 12:52N 37°55' W 122°25'0 0.0
2018-Jan-01 11:43N 37°55' W 122°25'0 0.0
2018-Jan-01 11:25N 37°55' W 122°25'0 0.0
2018-Jan-01 10:34N 37°55' W 122°25'0 0.0
2018-Jan-01 10:28N 37°55' W 122°25'0 0.0
2018-Jan-01 09:58N 37°55' W 122°25'0 0.0
2018-Jan-01 09:16N 37°55' W 122°25'0 0.0
2018-Jan-01 08:16N 37°55' W 122°25'0 0.0
2018-Jan-01 07:58N 37°55' W 122°25'0 0.0
2018-Jan-01 07:04N 37°55' W 122°25'0 0.0
2018-Jan-01 06:58N 37°55' W 122°25'0 0.0
2018-Jan-01 05:58N 37°55' W 122°25'0 0.0
2018-Jan-01 05:22N 37°55' W 122°25'0 0.0
2018-Jan-01 04:58N 37°55' W 122°25'0 0.0
2018-Jan-01 03:58N 37°55' W 122°25'0 0.0
2018-Jan-01 03:22N 37°55' W 122°25'0 0.0
2018-Jan-01 02:55N 37°55' W 122°25'0 0.0
2018-Jan-01 02:28N 37°55' W 122°25'0 0.0
2018-Jan-01 01:16N 37°55' W 122°25'0 0.0
2018-Jan-01 00:28N 37°55' W 122°25'0 0.0
2017-Dec-31 20:49N 37°55' W 122°25'0 0.0
2017-Dec-31 20:25N 37°55' W 122°25'0 0.0
2017-Dec-31 19:55N 37°55' W 122°25'0 0.0
2017-Dec-31 19:19N 37°55' W 122°25'0 0.0
2017-Dec-31 18:55N 37°55' W 122°25'0 0.0
2017-Dec-31 18:25N 37°55' W 122°25'0 0.0
2017-Dec-31 17:58N 37°55' W 122°25'0 0.0
2017-Dec-31 17:28N 37°55' W 122°25'0 0.0
2017-Dec-31 16:58N 37°55' W 122°25'0 0.0
2017-Dec-31 16:25N 37°55' W 122°25'0 0.0
2017-Dec-31 15:58N 37°55' W 122°25'0 0.0
2017-Dec-31 15:30N 37°55' W 122°25'1 1.4
2017-Dec-31 15:00N 37°55' W 122°25'3 6.7
2017-Dec-31 14:30N 37°52' W 122°24'2 3.5
2017-Dec-31 14:00N 37°50' W 122°24'3 7.0
2017-Dec-31 13:31N 37°47' W 122°22'2 3.2
2017-Dec-31 13:00N 37°45' W 122°21'0 0.4
2017-Dec-31 12:30N 37°46' W 122°21'0 0.2
2017-Dec-31 11:59N 37°46' W 122°21'0 0.0
2017-Dec-31 11:30N 37°46' W 122°21'0 0.0
2017-Dec-31 10:59N 37°46' W 122°21'0 0.0
2017-Dec-31 10:30N 37°46' W 122°21'0 0.0
2017-Dec-31 09:59N 37°46' W 122°21'0 0.0
2017-Dec-31 09:29N 37°46' W 122°21'0 0.0
2017-Dec-31 08:59N 37°46' W 122°21'0 0.1
2017-Dec-31 08:29N 37°46' W 122°21'0 0.1
2017-Dec-31 07:59N 37°46' W 122°21'0 0.3
2017-Dec-31 07:30N 37°46' W 122°21'0 0.2
2017-Dec-31 07:00N 37°45' W 122°21'0 0.1
2017-Dec-31 06:29N 37°45' W 122°21'0 0.0
2017-Dec-31 06:00N 37°45' W 122°21'0 0.0
2017-Dec-31 05:29N 37°45' W 122°21'0 0.0
2017-Dec-31 04:59N 37°45' W 122°21'0 0.0
2017-Dec-31 04:26N 37°45' W 122°21'0 0.0
2017-Dec-31 04:00N 37°45' W 122°21'0 0.0
2017-Dec-31 03:30N 37°45' W 122°21'0 0.0
2017-Dec-31 03:00N 37°45' W 122°21'0 0.0
2017-Dec-31 02:30N 37°45' W 122°21'0 0.0
2017-Dec-31 01:59N 37°45' W 122°21'0 0.1
2017-Dec-31 01:29N 37°45' W 122°21'0 0.4
2017-Dec-31 01:00N 37°46' W 122°21'0 0.1
2017-Dec-31 00:29N 37°46' W 122°21'0 0.0
2017-Dec-31 00:00N 37°46' W 122°21'0 0.0
2017-Dec-30 23:29N 37°46' W 122°21'0 0.0
2017-Dec-30 22:59N 37°46' W 122°21'0 0.0
2017-Dec-30 22:29N 37°46' W 122°21'0 0.1
2017-Dec-30 21:59N 37°46' W 122°21'0 0.0
2017-Dec-30 21:29N 37°46' W 122°21'0 0.0
2017-Dec-30 20:59N 37°46' W 122°21'0 0.1
2017-Dec-30 20:29N 37°46' W 122°21'0 0.0
2017-Dec-30 19:59N 37°46' W 122°21'0 0.1
2017-Dec-30 19:29N 37°46' W 122°21'0 0.1
2017-Dec-30 19:00N 37°46' W 122°21'0 0.0
2017-Dec-30 18:29N 37°46' W 122°21'0 0.1
2017-Dec-30 17:59N 37°46' W 122°21'0 0.4
2017-Dec-30 17:30N 37°45' W 122°21'0 0.2
2017-Dec-30 16:59N 37°45' W 122°21'0 0.0
2017-Dec-30 16:30N 37°45' W 122°21'0 0.1
2017-Dec-30 15:59N 37°45' W 122°21'0 0.0
2017-Dec-30 15:30N 37°45' W 122°21'0 0.0
2017-Dec-30 14:59N 37°45' W 122°21'0 0.0
2017-Dec-30 14:29N 37°45' W 122°21'0 0.1
2017-Dec-30 13:59N 37°45' W 122°21'0 0.0
2017-Dec-30 13:30N 37°45' W 122°21'0 0.0
2017-Dec-30 13:00N 37°45' W 122°21'0 0.0
2017-Dec-30 12:30N 37°45' W 122°21'0 0.0
2017-Dec-30 12:00N 37°45' W 122°21'0 0.1
2017-Dec-30 11:29N 37°45' W 122°21'0 0.4
2017-Dec-30 10:59N 37°46' W 122°21'0 0.1
2017-Dec-30 10:29N 37°46' W 122°21'0 0.0
2017-Dec-30 10:00N 37°46' W 122°21'0 0.0
2017-Dec-30 09:30N 37°46' W 122°21'0 0.0
2017-Dec-30 09:00N 37°46' W 122°21'0 0.1
2017-Dec-30 08:29N 37°46' W 122°21'0 0.0
2017-Dec-30 07:59N 37°46' W 122°21'0 0.1
2017-Dec-30 07:29N 37°46' W 122°21'0 0.1
2017-Dec-30 07:00N 37°46' W 122°21'0 0.3
2017-Dec-30 06:30N 37°46' W 122°21'0 0.2
2017-Dec-30 05:59N 37°45' W 122°21'0 0.1
2017-Dec-30 05:29N 37°45' W 122°21'0 0.0
2017-Dec-30 05:00N 37°45' W 122°21'0 0.0
2017-Dec-30 04:29N 37°45' W 122°21'0 0.0
2017-Dec-30 03:59N 37°45' W 122°21'0 0.0
2017-Dec-30 03:30N 37°45' W 122°21'0 0.0
2017-Dec-30 02:59N 37°45' W 122°21'0 0.0
2017-Dec-30 02:29N 37°45' W 122°21'0 0.0
2017-Dec-30 01:59N 37°45' W 122°21'0 0.0
2017-Dec-30 01:30N 37°45' W 122°21'0 0.0
2017-Dec-30 00:59N 37°45' W 122°21'0 0.1
2017-Dec-30 00:29N 37°45' W 122°21'0 0.4
2017-Dec-29 23:59N 37°46' W 122°21'0 0.1
2017-Dec-29 23:29N 37°46' W 122°21'0 0.0
2017-Dec-29 22:59N 37°46' W 122°21'0 0.0
2017-Dec-29 22:29N 37°46' W 122°21'0 0.0
2017-Dec-29 21:56N 37°46' W 122°21'0 0.0
2017-Dec-29 21:29N 37°46' W 122°21'0 0.0
2017-Dec-29 20:59N 37°46' W 122°21'0 0.1
2017-Dec-29 20:29N 37°46' W 122°21'0 0.1
2017-Dec-29 19:59N 37°46' W 122°21'0 0.0
2017-Dec-29 19:29N 37°46' W 122°21'0 0.0
2017-Dec-29 18:59N 37°46' W 122°21'0 0.1
2017-Dec-29 18:29N 37°46' W 122°21'0 0.0
2017-Dec-29 17:59N 37°46' W 122°21'0 0.0
2017-Dec-29 17:29N 37°46' W 122°21'0 0.3
2017-Dec-29 16:59N 37°46' W 122°21'0 0.3
2017-Dec-29 16:29N 37°45' W 122°21'0 0.1
2017-Dec-29 15:59N 37°45' W 122°21'0 0.0
2017-Dec-29 15:29N 37°45' W 122°21'0 0.0
2017-Dec-29 14:59N 37°45' W 122°21'0 0.0
2017-Dec-29 14:29N 37°45' W 122°21'0 0.1
2017-Dec-29 13:59N 37°45' W 122°21'0 0.1
2017-Dec-29 13:29N 37°45' W 122°21'0 0.0
2017-Dec-29 12:59N 37°45' W 122°21'0 0.0
2017-Dec-29 12:29N 37°45' W 122°21'0 0.0
2017-Dec-29 11:59N 37°45' W 122°21'0 0.0
2017-Dec-29 11:29N 37°45' W 122°21'0 0.0
2017-Dec-29 10:59N 37°45' W 122°21'0 0.2
2017-Dec-29 10:29N 37°46' W 122°21'0 0.4
2017-Dec-29 09:59N 37°46' W 122°21'0 0.0
2017-Dec-29 09:29N 37°46' W 122°21'0 0.1
2017-Dec-29 08:59N 37°46' W 122°21'0 0.0
2017-Dec-29 08:29N 37°46' W 122°21'0 0.0
2017-Dec-29 07:59N 37°46' W 122°21'0 0.1
2017-Dec-29 07:29N 37°46' W 122°21'0 0.0
2017-Dec-29 06:59N 37°46' W 122°21'0 0.0
2017-Dec-29 06:29N 37°46' W 122°21'0 0.4
2017-Dec-29 05:59N 37°46' W 122°21'0 0.4
2017-Dec-29 05:29N 37°45' W 122°21'0 0.0
2017-Dec-29 04:59N 37°45' W 122°21'0 0.0
2017-Dec-29 04:29N 37°45' W 122°21'0 0.0
2017-Dec-29 03:59N 37°45' W 122°21'0 0.1
2017-Dec-29 03:29N 37°45' W 122°21'0 0.0
2017-Dec-29 02:59N 37°45' W 122°21'0 0.1
2017-Dec-29 02:29N 37°45' W 122°21'0 0.0
2017-Dec-29 01:59N 37°45' W 122°21'0 0.0
2017-Dec-29 01:29N 37°45' W 122°21'0 0.0
2017-Dec-29 00:59N 37°45' W 122°21'0 0.1
2017-Dec-29 00:26N 37°45' W 122°21'0 0.0
2017-Dec-28 23:59N 37°45' W 122°21'0 0.2
2017-Dec-28 23:26N 37°45' W 122°21'0 0.3
2017-Dec-28 22:59N 37°46' W 122°21'0 0.1
2017-Dec-28 22:29N 37°46' W 122°21'0 0.1
2017-Dec-28 21:59N 37°46' W 122°21'0 0.0
2017-Dec-28 21:29N 37°46' W 122°21'0 0.0
2017-Dec-28 20:59N 37°46' W 122°21'0 0.0
2017-Dec-28 20:29N 37°46' W 122°21'0 0.0
2017-Dec-28 19:59N 37°46' W 122°21'0 0.0
2017-Dec-28 19:29N 37°46' W 122°21'0 0.1
2017-Dec-28 18:59N 37°46' W 122°21'0 0.0
2017-Dec-28 18:29N 37°46' W 122°21'0 0.1
2017-Dec-28 17:59N 37°46' W 122°21'0 0.2
2017-Dec-28 17:29N 37°46' W 122°21'0 0.1
2017-Dec-28 16:59N 37°46' W 122°21'0 0.2
2017-Dec-28 16:29N 37°46' W 122°21'0 0.3
2017-Dec-28 15:59N 37°45' W 122°21'0 0.1
2017-Dec-28 15:29N 37°45' W 122°21'0 0.1
2017-Dec-28 14:59N 37°45' W 122°21'0 0.0
2017-Dec-28 14:29N 37°45' W 122°21'0 0.0
2017-Dec-28 13:59N 37°45' W 122°21'0 0.0
2017-Dec-28 13:29N 37°45' W 122°21'0 0.0
2017-Dec-28 12:59N 37°45' W 122°21'0 0.0
2017-Dec-28 12:29N 37°45' W 122°21'0 0.0
2017-Dec-28 11:59N 37°45' W 122°21'0 0.0
2017-Dec-28 11:29N 37°45' W 122°21'0 0.0
2017-Dec-28 10:59N 37°45' W 122°21'0 0.0
2017-Dec-28 10:29N 37°45' W 122°21'0 0.0
2017-Dec-28 09:59N 37°45' W 122°21'0 0.3
2017-Dec-28 09:29N 37°45' W 122°21'0 0.3
2017-Dec-28 08:59N 37°46' W 122°21'0 0.1
2017-Dec-28 08:29N 37°46' W 122°21'0 0.0
2017-Dec-28 07:59N 37°46' W 122°21'0 0.1
2017-Dec-28 07:29N 37°46' W 122°21'0 0.1
2017-Dec-28 06:59N 37°46' W 122°21'0 0.0
2017-Dec-28 06:29N 37°46' W 122°21'0 0.0
2017-Dec-28 05:59N 37°46' W 122°21'0 0.0
2017-Dec-28 05:29N 37°46' W 122°21'0 0.0
2017-Dec-28 04:59N 37°46' W 122°21'0 0.2
2017-Dec-28 04:29N 37°46' W 122°21'0 0.3
2017-Dec-28 03:59N 37°45' W 122°21'0 0.1
2017-Dec-28 03:29N 37°45' W 122°21'0 0.0
2017-Dec-28 02:59N 37°45' W 122°21'0 0.0
2017-Dec-28 02:29N 37°45' W 122°21'0 0.1
2017-Dec-28 01:59N 37°45' W 122°21'0 0.0
2017-Dec-28 01:29N 37°45' W 122°21'1 1.8
2017-Dec-28 01:00N 37°46' W 122°22'4 8.2
2017-Dec-28 00:30N 37°49' W 122°25'611.8
2017-Dec-28 00:00N 37°47' W 122°33'611.9
2017-Dec-27 23:30N 37°45' W 122°40'610.9
2017-Dec-27 23:00N 37°42' W 122°45'612.2
2017-Dec-27 22:30N 37°38' W 122°51'612.0
2017-Dec-27 22:00N 37°35' W 122°58'612.1
2017-Dec-27 21:30N 37°31' W 123°04'2511.6
2017-Dec-27 19:17N 37°06' W 123°03'1 4.1
2017-Dec-27 18:58N 37°05' W 123°02'510.7
2017-Dec-27 18:30N 37°00' W 122°60'711.6
2017-Dec-27 17:52N 36°53' W 122°56'411.8
2017-Dec-27 17:30N 36°49' W 122°54'611.9
2017-Dec-27 17:00N 36°44' W 122°52'612.2
2017-Dec-27 16:31N 36°38' W 122°49'612.0
2017-Dec-27 16:00N 36°33' W 122°47'612.0
2017-Dec-27 15:30N 36°27' W 122°44'611.9
2017-Dec-27 15:01N 36°22' W 122°41'611.7
2017-Dec-27 14:31N 36°16' W 122°38'611.8
2017-Dec-27 14:00N 36°11' W 122°36'611.5
2017-Dec-27 13:30N 36°05' W 122°33'611.4
2017-Dec-27 13:00N 35°60' W 122°31'611.2
2017-Dec-27 12:31N 35°55' W 122°28'611.4
2017-Dec-27 12:00N 35°49' W 122°26'611.3
2017-Dec-27 11:30N 35°44' W 122°23'611.2
2017-Dec-27 11:01N 35°39' W 122°21'611.2
2017-Dec-27 10:30N 35°34' W 122°18'611.3
2017-Dec-27 10:00N 35°28' W 122°16'611.1
2017-Dec-27 09:30N 35°23' W 122°13'611.3
2017-Dec-27 09:00N 35°18' W 122°11'611.5
2017-Dec-27 08:31N 35°13' W 122°08'611.5
2017-Dec-27 08:01N 35°07' W 122°06'611.6
2017-Dec-27 07:31N 35°02' W 122°03'611.5
2017-Dec-27 07:00N 34°56' W 122°01'611.5
2017-Dec-27 06:30N 34°51' W 121°58'611.4
2017-Dec-27 06:01N 34°46' W 121°55'611.1
2017-Dec-27 05:30N 34°41' W 121°53'611.0
2017-Dec-27 05:00N 34°36' W 121°49'611.4
2017-Dec-27 04:30N 34°31' W 121°45'611.4
2017-Dec-27 03:59N 34°27' W 121°41'611.6
2017-Dec-27 03:29N 34°22' W 121°36'611.5
2017-Dec-27 02:59N 34°18' W 121°32'611.8
2017-Dec-27 02:30N 34°13' W 121°28'611.3
2017-Dec-27 02:00N 34°09' W 121°24'611.6
2017-Dec-27 01:30N 34°04' W 121°19'611.3
2017-Dec-27 01:00N 33°60' W 121°15'611.2
2017-Dec-27 00:31N 33°55' W 121°11'611.2
2017-Dec-27 00:00N 33°51' W 121°07'611.1
2017-Dec-26 23:30N 33°46' W 121°03'611.4
2017-Dec-26 23:01N 33°42' W 120°59'611.8
2017-Dec-26 22:29N 33°37' W 120°54'611.7
2017-Dec-26 22:00N 33°33' W 120°50'611.6
2017-Dec-26 21:31N 33°28' W 120°46'611.5
2017-Dec-26 21:00N 33°23' W 120°42'611.5
2017-Dec-26 20:30N 33°19' W 120°38'611.6
2017-Dec-26 20:00N 33°14' W 120°33'811.7
2017-Dec-26 19:19N 33°08' W 120°27'411.4
2017-Dec-26 19:00N 33°05' W 120°25'611.5
2017-Dec-26 18:31N 33°01' W 120°21'611.7
2017-Dec-26 18:00N 32°56' W 120°16'611.7
2017-Dec-26 17:30N 32°51' W 120°12'1211.6
2017-Dec-26 16:29N 32°42' W 120°03'1511.8
2017-Dec-26 15:11N 32°30' W 119°52'1511.8
2017-Dec-26 13:54N 32°18' W 119°41'512.2
2017-Dec-26 13:30N 32°14' W 119°38'612.1
2017-Dec-26 13:00N 32°09' W 119°33'612.0
2017-Dec-26 12:30N 32°04' W 119°29'611.8
2017-Dec-26 12:00N 31°60' W 119°25'611.8
2017-Dec-26 11:29N 31°55' W 119°20'611.7
2017-Dec-26 10:57N 31°50' W 119°16'511.7
2017-Dec-26 10:30N 31°46' W 119°12'611.8
2017-Dec-26 10:00N 31°41' W 119°08'611.8
2017-Dec-26 09:30N 31°37' W 119°03'612.1
2017-Dec-26 09:00N 31°32' W 118°60'612.0
2017-Dec-26 08:30N 31°27' W 118°55'611.8
2017-Dec-26 08:00N 31°22' W 118°51'611.7
2017-Dec-26 07:30N 31°18' W 118°47'611.6
2017-Dec-26 07:00N 31°13' W 118°43'611.8
2017-Dec-26 06:30N 31°08' W 118°38'6011.7
2017-Dec-26 01:22N 30°21' W 117°56'411.5
2017-Dec-26 01:00N 30°18' W 117°53'711.5
2017-Dec-26 00:24N 30°12' W 117°48'511.4
2017-Dec-26 00:00N 30°08' W 117°45'611.4
2017-Dec-25 23:30N 30°04' W 117°41'611.4
2017-Dec-25 22:58N 29°59' W 117°37'611.7
2017-Dec-25 22:29N 29°55' W 117°32'611.5
2017-Dec-25 22:00N 29°50' W 117°28'611.6
2017-Dec-25 21:28N 29°45' W 117°24'511.6
2017-Dec-25 21:00N 29°41' W 117°21'611.6
2017-Dec-25 20:30N 29°36' W 117°17'611.7
2017-Dec-25 20:01N 29°32' W 117°12'611.9
2017-Dec-25 19:30N 29°27' W 117°08'811.9
2017-Dec-25 18:48N 29°21' W 117°02'412.2
2017-Dec-25 18:30N 29°18' W 116°60'812.3
2017-Dec-25 17:53N 29°12' W 116°54'712.4
2017-Dec-25 17:20N 29°06' W 116°50'3112.6
2017-Dec-25 14:55N 28°42' W 116°28'512.6
2017-Dec-25 14:31N 28°38' W 116°25'712.5
2017-Dec-25 13:57N 28°32' W 116°20'612.6
2017-Dec-25 13:29N 28°28' W 116°16'612.5
2017-Dec-25 12:59N 28°23' W 116°12'612.4
2017-Dec-25 12:30N 28°18' W 116°08'612.2
2017-Dec-25 12:00N 28°13' W 116°04'612.2
2017-Dec-25 11:30N 28°08' W 115°59'  

Dump ship's entire track history